sensor_id;sensor_type;location;lat;lon;timestamp;pressure;altitude;pressure_sealevel;temperature;humidity
63493;BME280;49638;47.526;10.028;2022-12-04T00:00:06;90990.34;;;0.39;93.61
63493;BME280;49638;47.526;10.028;2022-12-04T00:03:07;91002.56;;;0.39;93.15
63493;BME280;49638;47.526;10.028;2022-12-04T00:06:10;90989.16;;;0.35;93.07
63493;BME280;49638;47.526;10.028;2022-12-04T00:09:11;90990.75;;;0.30;93.16
63493;BME280;49638;47.526;10.028;2022-12-04T00:12:11;90993.56;;;0.28;93.64
63493;BME280;49638;47.526;10.028;2022-12-04T00:15:12;90997.34;;;0.32;93.53
63493;BME280;49638;47.526;10.028;2022-12-04T00:18:12;91002.16;;;0.35;93.45
63493;BME280;49638;47.526;10.028;2022-12-04T00:21:14;90999.34;;;0.30;93.41
63493;BME280;49638;47.526;10.028;2022-12-04T00:24:14;90982.53;;;0.26;93.81
63493;BME280;49638;47.526;10.028;2022-12-04T00:27:14;90993.94;;;0.32;93.82
63493;BME280;49638;47.526;10.028;2022-12-04T00:30:15;90995.16;;;0.42;93.87
63493;BME280;49638;47.526;10.028;2022-12-04T00:33:15;90987.97;;;0.38;93.76
63493;BME280;49638;47.526;10.028;2022-12-04T00:36:23;90998.75;;;0.48;93.86
63493;BME280;49638;47.526;10.028;2022-12-04T00:39:24;90999.72;;;0.54;93.87
63493;BME280;49638;47.526;10.028;2022-12-04T00:42:24;90996.34;;;0.60;94.28
63493;BME280;49638;47.526;10.028;2022-12-04T00:45:24;90988.16;;;0.56;93.96
63493;BME280;49638;47.526;10.028;2022-12-04T00:48:25;90992.72;;;0.67;94.07
63493;BME280;49638;47.526;10.028;2022-12-04T00:51:25;90975.94;;;0.57;93.72
63493;BME280;49638;47.526;10.028;2022-12-04T00:54:26;90974.13;;;0.57;93.93
63493;BME280;49638;47.526;10.028;2022-12-04T00:57:26;90986.53;;;0.68;94.39
63493;BME280;49638;47.526;10.028;2022-12-04T01:00:26;90978.91;;;0.74;94.54
63493;BME280;49638;47.526;10.028;2022-12-04T01:03:27;90971.72;;;0.76;94.12
63493;BME280;49638;47.526;10.028;2022-12-04T01:06:30;90967.94;;;0.78;94.35
63493;BME280;49638;47.526;10.028;2022-12-04T01:09:31;90971.31;;;0.79;94.06
63493;BME280;49638;47.526;10.028;2022-12-04T01:12:31;90960.13;;;0.78;94.31
63493;BME280;49638;47.526;10.028;2022-12-04T01:15:32;90968.50;;;0.80;93.92
63493;BME280;49638;47.526;10.028;2022-12-04T01:18:32;90960.53;;;0.75;94.02
63493;BME280;49638;47.526;10.028;2022-12-04T01:21:33;90957.09;;;0.75;94.01
63493;BME280;49638;47.526;10.028;2022-12-04T01:24:33;90966.69;;;0.81;93.68
63493;BME280;49638;47.526;10.028;2022-12-04T01:27:34;90968.50;;;0.80;93.89
63493;BME280;49638;47.526;10.028;2022-12-04T01:30:34;90950.31;;;0.74;94.07
63493;BME280;49638;47.526;10.028;2022-12-04T01:33:36;90952.09;;;0.80;93.82
63493;BME280;49638;47.526;10.028;2022-12-04T01:36:36;90957.09;;;0.75;93.84
63493;BME280;49638;47.526;10.028;2022-12-04T01:39:37;90957.53;;;0.78;93.75
63493;BME280;49638;47.526;10.028;2022-12-04T01:42:37;90952.31;;;0.78;93.78
63493;BME280;49638;47.526;10.028;2022-12-04T01:45:39;90950.13;;;0.75;93.52
63493;BME280;49638;47.526;10.028;2022-12-04T01:48:43;90956.72;;;0.71;93.61
63493;BME280;49638;47.526;10.028;2022-12-04T01:51:48;90963.13;;;0.68;93.62
63493;BME280;49638;47.526;10.028;2022-12-04T01:54:53;90956.53;;;0.66;93.53
63493;BME280;49638;47.526;10.028;2022-12-04T01:57:55;90948.94;;;0.58;93.19
63493;BME280;49638;47.526;10.028;2022-12-04T02:00:59;90949.34;;;0.55;93.09
63493;BME280;49638;47.526;10.028;2022-12-04T02:04:01;90948.13;;;0.51;93.20
63493;BME280;49638;47.526;10.028;2022-12-04T02:07:01;90935.38;;;0.42;93.03
63493;BME280;49638;47.526;10.028;2022-12-04T02:10:02;90949.56;;;0.46;93.21
63493;BME280;49638;47.526;10.028;2022-12-04T02:17:21;90948.13;;;0.51;93.37
63493;BME280;49638;47.526;10.028;2022-12-04T02:27:02;90945.75;;;0.49;93.63
63493;BME280;49638;47.526;10.028;2022-12-04T02:30:08;90931.75;;;0.43;93.60
63493;BME280;49638;47.526;10.028;2022-12-04T02:33:17;90946.78;;;0.41;93.16
63493;BME280;49638;47.526;10.028;2022-12-04T02:36:24;90952.16;;;0.40;93.39
63493;BME280;49638;47.526;10.028;2022-12-04T02:39:35;90962.94;;;0.37;92.95
63493;BME280;49638;47.526;10.028;2022-12-04T02:42:59;90958.97;;;0.34;92.96
63493;BME280;49638;47.526;10.028;2022-12-04T02:46:06;90962.78;;;0.32;93.13
63493;BME280;49638;47.526;10.028;2022-12-04T02:49:15;90964.97;;;0.28;93.15
63493;BME280;49638;47.526;10.028;2022-12-04T02:52:21;90965.53;;;0.23;93.32
63493;BME280;49638;47.526;10.028;2022-12-04T02:55:29;90972.56;;;0.23;93.16
63493;BME280;49638;47.526;10.028;2022-12-04T02:58:37;90976.56;;;0.19;92.98
63493;BME280;49638;47.526;10.028;2022-12-04T03:01:41;90976.94;;;0.16;93.06
63493;BME280;49638;47.526;10.028;2022-12-04T03:04:45;90965.34;;;0.05;93.13
63493;BME280;49638;47.526;10.028;2022-12-04T03:08:03;90964.75;;;0.03;93.06
63493;BME280;49638;47.526;10.028;2022-12-04T03:11:05;90969.75;;;0.05;93.50
63493;BME280;49638;47.526;10.028;2022-12-04T03:17:26;90962.97;;;0.04;94.17
63493;BME280;49638;47.526;10.028;2022-12-04T03:20:31;90946.97;;;-0.07;94.01
63493;BME280;49638;47.526;10.028;2022-12-04T03:26:59;90949.75;;;-0.08;93.60
63493;BME280;49638;47.526;10.028;2022-12-04T03:30:08;90944.78;;;-0.10;93.60
63493;BME280;49638;47.526;10.028;2022-12-04T03:33:14;90945.75;;;-0.11;93.62
63493;BME280;49638;47.526;10.028;2022-12-04T03:36:44;90930.97;;;-0.17;93.91
63493;BME280;49638;47.526;10.028;2022-12-04T03:43:26;90951.34;;;-0.07;93.95
63493;BME280;49638;47.526;10.028;2022-12-04T03:46:40;90949.13;;;-0.10;94.20
63493;BME280;49638;47.526;10.028;2022-12-04T03:49:50;90951.75;;;-0.17;93.94
63493;BME280;49638;47.526;10.028;2022-12-04T03:53:04;90950.13;;;-0.18;93.84
63493;BME280;49638;47.526;10.028;2022-12-04T03:56:12;90947.34;;;-0.23;93.94
63493;BME280;49638;47.526;10.028;2022-12-04T03:59:26;90954.53;;;-0.18;94.39
63493;BME280;49638;47.526;10.028;2022-12-04T04:02:32;90951.31;;;-0.20;94.19
63493;BME280;49638;47.526;10.028;2022-12-04T04:05:35;90936.56;;;-0.27;94.79
63493;BME280;49638;47.526;10.028;2022-12-04T04:08:44;90939.34;;;-0.28;94.38
63493;BME280;49638;47.526;10.028;2022-12-04T04:12:04;90944.13;;;-0.25;93.85
63493;BME280;49638;47.526;10.028;2022-12-04T04:15:09;90941.94;;;-0.28;94.29
63493;BME280;49638;47.526;10.028;2022-12-04T04:18:30;90926.34;;;-0.35;93.86
63493;BME280;49638;47.526;10.028;2022-12-04T04:21:52;90934.75;;;-0.26;94.15
63493;BME280;49638;47.526;10.028;2022-12-04T04:25:16;90937.94;;;-0.24;94.05
63493;BME280;49638;47.526;10.028;2022-12-04T04:28:36;90936.75;;;-0.21;94.27
63493;BME280;49638;47.526;10.028;2022-12-04T04:34:51;90933.16;;;-0.27;94.26
63493;BME280;49638;47.526;10.028;2022-12-04T04:41:19;90931.34;;;-0.33;94.40
63493;BME280;49638;47.526;10.028;2022-12-04T04:44:33;90929.72;;;-0.34;94.82
63493;BME280;49638;47.526;10.028;2022-12-04T04:47:42;90929.72;;;-0.34;94.87
63493;BME280;49638;47.526;10.028;2022-12-04T04:50:44;90930.56;;;-0.34;94.56
63493;BME280;49638;47.526;10.028;2022-12-04T04:53:48;90939.34;;;-0.28;94.52
63493;BME280;49638;47.526;10.028;2022-12-04T04:56:50;90933.75;;;-0.32;94.13
63493;BME280;49638;47.526;10.028;2022-12-04T04:59:50;90927.94;;;-0.40;94.48
63493;BME280;49638;47.526;10.028;2022-12-04T05:02:50;90912.94;;;-0.45;94.25
63493;BME280;49638;47.526;10.028;2022-12-04T05:05:51;90939.13;;;-0.40;94.20
63493;BME280;49638;47.526;10.028;2022-12-04T05:08:51;90938.53;;;-0.35;94.59
63493;BME280;49638;47.526;10.028;2022-12-04T05:11:51;90933.94;;;-0.33;94.26
63493;BME280;49638;47.526;10.028;2022-12-04T05:14:52;90919.75;;;-0.44;94.24
63493;BME280;49638;47.526;10.028;2022-12-04T05:17:52;90939.91;;;-0.39;94.49
63493;BME280;49638;47.526;10.028;2022-12-04T05:20:52;90938.50;;;-0.42;94.40
63493;BME280;49638;47.526;10.028;2022-12-04T05:23:53;90952.91;;;-0.33;94.46
63493;BME280;49638;47.526;10.028;2022-12-04T05:26:53;90936.94;;;-0.43;94.23
63493;BME280;49638;47.526;10.028;2022-12-04T05:29:55;90951.31;;;-0.34;94.52
63493;BME280;49638;47.526;10.028;2022-12-04T05:32:56;90953.50;;;-0.31;93.89
63493;BME280;49638;47.526;10.028;2022-12-04T05:36:04;90946.53;;;-0.37;94.01
63493;BME280;49638;47.526;10.028;2022-12-04T05:39:05;90945.72;;;-0.37;93.94
63493;BME280;49638;47.526;10.028;2022-12-04T05:42:05;90947.91;;;-0.47;94.14
63493;BME280;49638;47.526;10.028;2022-12-04T05:45:06;90951.28;;;-0.47;94.41
63493;BME280;49638;47.526;10.028;2022-12-04T05:48:06;90946.28;;;-0.49;94.57
63493;BME280;49638;47.526;10.028;2022-12-04T05:51:07;90952.69;;;-0.44;94.31
63493;BME280;49638;47.526;10.028;2022-12-04T05:54:08;90947.28;;;-0.50;93.82
63493;BME280;49638;47.526;10.028;2022-12-04T05:57:08;90950.28;;;-0.53;94.12
63493;BME280;49638;47.526;10.028;2022-12-04T06:00:10;90952.88;;;-0.53;94.30
63493;BME280;49638;47.526;10.028;2022-12-04T06:03:10;90946.03;;;-0.67;95.07
63493;BME280;49638;47.526;10.028;2022-12-04T06:06:17;90946.25;;;-0.62;95.28
63493;BME280;49638;47.526;10.028;2022-12-04T06:09:17;90953.06;;;-0.61;95.71
63493;BME280;49638;47.526;10.028;2022-12-04T06:12:17;90961.03;;;-0.56;96.03
63493;BME280;49638;47.526;10.028;2022-12-04T06:15:18;90962.63;;;-0.55;96.01
63493;BME280;49638;47.526;10.028;2022-12-04T06:18:18;90961.63;;;-0.60;96.16
63493;BME280;49638;47.526;10.028;2022-12-04T06:21:19;90962.44;;;-0.60;96.31
63493;BME280;49638;47.526;10.028;2022-12-04T06:24:22;90966.63;;;-0.59;96.41
63493;BME280;49638;47.526;10.028;2022-12-04T06:27:23;90973.84;;;-0.54;96.70
63493;BME280;49638;47.526;10.028;2022-12-04T06:30:23;90974.81;;;-0.55;96.65
63493;BME280;49638;47.526;10.028;2022-12-04T06:33:23;90967.63;;;-0.60;97.34
63493;BME280;49638;47.526;10.028;2022-12-04T06:36:24;90973.63;;;-0.53;97.03
63493;BME280;49638;47.526;10.028;2022-12-04T06:39:24;90979.63;;;-0.52;96.99
63493;BME280;49638;47.526;10.028;2022-12-04T06:42:25;90972.41;;;-0.63;97.06
63493;BME280;49638;47.526;10.028;2022-12-04T06:45:25;90969.84;;;-0.50;97.34
63493;BME280;49638;47.526;10.028;2022-12-04T06:48:25;90970.81;;;-0.51;97.29
63493;BME280;49638;47.526;10.028;2022-12-04T06:51:33;90965.25;;;-0.48;97.54
63493;BME280;49638;47.526;10.028;2022-12-04T06:54:34;90956.50;;;-0.47;97.13
63493;BME280;49638;47.526;10.028;2022-12-04T06:57:34;90946.09;;;-0.54;96.95
63493;BME280;49638;47.526;10.028;2022-12-04T07:00:35;90958.88;;;-0.45;96.99
63493;BME280;49638;47.526;10.028;2022-12-04T07:03:36;90964.06;;;-0.45;97.49
63493;BME280;49638;47.526;10.028;2022-12-04T07:06:38;90968.47;;;-0.46;97.64
63493;BME280;49638;47.526;10.028;2022-12-04T07:09:38;90968.66;;;-0.41;97.63
63493;BME280;49638;47.526;10.028;2022-12-04T07:12:38;90971.69;;;-0.37;97.36
63493;BME280;49638;47.526;10.028;2022-12-04T07:15:39;90969.09;;;-0.37;97.44
63493;BME280;49638;47.526;10.028;2022-12-04T07:18:39;90971.88;;;-0.32;97.83
63493;BME280;49638;47.526;10.028;2022-12-04T07:21:40;90975.09;;;-0.30;97.43
63493;BME280;49638;47.526;10.028;2022-12-04T07:24:41;90967.09;;;-0.35;97.54
63493;BME280;49638;47.526;10.028;2022-12-04T07:27:42;90975.88;;;-0.36;97.25
63493;BME280;49638;47.526;10.028;2022-12-04T07:30:42;90957.69;;;-0.43;97.47
63493;BME280;49638;47.526;10.028;2022-12-04T07:33:44;90969.09;;;-0.37;97.75
63493;BME280;49638;47.526;10.028;2022-12-04T07:36:44;90964.50;;;-0.35;97.76
63493;BME280;49638;47.526;10.028;2022-12-04T07:39:45;90959.91;;;-0.33;97.50
63493;BME280;49638;47.526;10.028;2022-12-04T07:42:45;90961.72;;;-0.34;97.46
63493;BME280;49638;47.526;10.028;2022-12-04T07:45:45;90970.09;;;-0.32;97.51
63493;BME280;49638;47.526;10.028;2022-12-04T07:48:46;90956.53;;;-0.34;97.44
63493;BME280;49638;47.526;10.028;2022-12-04T07:51:46;90970.69;;;-0.30;97.30
63493;BME280;49638;47.526;10.028;2022-12-04T07:54:46;90969.09;;;-0.31;97.34
63493;BME280;49638;47.526;10.028;2022-12-04T07:57:47;90964.72;;;-0.30;97.85
63493;BME280;49638;47.526;10.028;2022-12-04T08:00:47;90964.69;;;-0.37;97.26
63493;BME280;49638;47.526;10.028;2022-12-04T08:03:49;90974.91;;;-0.22;97.69
63493;BME280;49638;47.526;10.028;2022-12-04T08:06:50;90972.13;;;-0.27;96.99
63493;BME280;49638;47.526;10.028;2022-12-04T08:09:50;90980.91;;;-0.21;97.16
63493;BME280;49638;47.526;10.028;2022-12-04T08:12:50;90972.50;;;-0.30;96.84
63493;BME280;49638;47.526;10.028;2022-12-04T08:15:51;90968.69;;;-0.34;97.13
63493;BME280;49638;47.526;10.028;2022-12-04T08:18:52;90986.69;;;-0.26;97.12
63493;BME280;49638;47.526;10.028;2022-12-04T08:21:53;90988.28;;;-0.25;97.16
63493;BME280;49638;47.526;10.028;2022-12-04T08:24:54;91008.88;;;-0.23;97.34
63493;BME280;49638;47.526;10.028;2022-12-04T08:27:54;91011.66;;;-0.18;97.13
63493;BME280;49638;47.526;10.028;2022-12-04T08:30:55;90999.28;;;-0.23;96.95
63493;BME280;49638;47.526;10.028;2022-12-04T08:34:03;91001.28;;;-0.18;96.70
63493;BME280;49638;47.526;10.028;2022-12-04T08:37:04;91004.09;;;-0.20;97.97
63493;BME280;49638;47.526;10.028;2022-12-04T08:40:05;90998.06;;;-0.14;97.31
63493;BME280;49638;47.526;10.028;2022-12-04T08:43:05;91003.28;;;-0.14;97.55
63493;BME280;49638;47.526;10.028;2022-12-04T08:46:07;91011.47;;;-0.04;97.28
63493;BME280;49638;47.526;10.028;2022-12-04T08:49:09;91000.69;;;-0.07;96.75
63493;BME280;49638;47.526;10.028;2022-12-04T08:52:09;91008.06;;;-0.11;96.83
63493;BME280;49638;47.526;10.028;2022-12-04T08:55:09;91022.69;;;-0.03;96.91
63493;BME280;49638;47.526;10.028;2022-12-04T08:58:10;91020.50;;;0.01;96.53
63493;BME280;49638;47.526;10.028;2022-12-04T09:01:12;91016.09;;;0.01;96.79
63493;BME280;49638;47.526;10.028;2022-12-04T09:04:12;91011.47;;;-0.04;96.66
63493;BME280;49638;47.526;10.028;2022-12-04T09:07:13;91019.28;;;0.03;96.59
63493;BME280;49638;47.526;10.028;2022-12-04T09:10:13;91005.88;;;-0.07;96.78
63493;BME280;49638;47.526;10.028;2022-12-04T09:13:13;91011.31;;;0.05;96.80
63493;BME280;49638;47.526;10.028;2022-12-04T09:16:16;91008.72;;;0.05;96.86
63493;BME280;49638;47.526;10.028;2022-12-04T09:19:17;91009.91;;;0.09;97.27
63493;BME280;49638;47.526;10.028;2022-12-04T09:22:18;91025.13;;;0.12;97.01
63493;BME280;49638;47.526;10.028;2022-12-04T09:25:18;91013.53;;;0.14;96.92
63493;BME280;49638;47.526;10.028;2022-12-04T09:28:18;91001.72;;;0.12;97.16
63493;BME280;49638;47.526;10.028;2022-12-04T09:31:20;91013.94;;;0.18;97.04
63493;BME280;49638;47.526;10.028;2022-12-04T09:34:21;91015.75;;;0.24;96.99
63493;BME280;49638;47.526;10.028;2022-12-04T09:37:21;91025.31;;;0.30;96.52
63493;BME280;49638;47.526;10.028;2022-12-04T09:40:35;91016.56;;;0.31;96.23
63493;BME280;49638;47.526;10.028;2022-12-04T09:43:46;91002.94;;;0.29;96.84
63493;BME280;49638;47.526;10.028;2022-12-04T09:49:59;90981.53;;;0.40;96.57
63493;BME280;49638;47.526;10.028;2022-12-04T09:53:08;90957.34;;;0.33;96.98
63493;BME280;49638;47.526;10.028;2022-12-04T09:56:13;90967.75;;;0.46;96.84
63493;BME280;49638;47.526;10.028;2022-12-04T09:59:24;90957.75;;;0.50;96.95
63493;BME280;49638;47.526;10.028;2022-12-04T10:02:37;90950.94;;;0.56;96.38
63493;BME280;49638;47.526;10.028;2022-12-04T10:05:44;90951.13;;;0.61;95.96
63493;BME280;49638;47.526;10.028;2022-12-04T10:08:57;90968.53;;;0.67;95.29
63493;BME280;49638;47.526;10.028;2022-12-04T10:15:36;90987.13;;;0.77;95.27
63493;BME280;49638;47.526;10.028;2022-12-04T10:18:54;90993.31;;;0.76;95.37
63493;BME280;49638;47.526;10.028;2022-12-04T10:25:24;90989.31;;;0.74;95.30
63493;BME280;49638;47.526;10.028;2022-12-04T10:28:33;90976.13;;;0.68;95.88
63493;BME280;49638;47.526;10.028;2022-12-04T10:31:36;90970.16;;;0.68;95.61
63493;BME280;49638;47.526;10.028;2022-12-04T10:34:38;90977.31;;;0.79;95.84
63493;BME280;49638;47.526;10.028;2022-12-04T10:37:40;90965.09;;;0.80;95.67
63493;BME280;49638;47.526;10.028;2022-12-04T10:40:51;90955.50;;;0.80;95.64
63493;BME280;49638;47.526;10.028;2022-12-04T10:43:54;90946.09;;;0.92;95.37
63493;BME280;49638;47.526;10.028;2022-12-04T10:46:58;90951.28;;;0.92;95.49
63493;BME280;49638;47.526;10.028;2022-12-04T10:50:02;90947.88;;;0.92;95.36
63493;BME280;49638;47.526;10.028;2022-12-04T10:53:14;90923.47;;;0.86;95.43
63493;BME280;49638;47.526;10.028;2022-12-04T10:56:22;90920.66;;;0.94;95.17
63493;BME280;49638;47.526;10.028;2022-12-04T10:59:24;90916.44;;;0.93;95.28
63493;BME280;49638;47.526;10.028;2022-12-04T11:02:29;90912.84;;;0.94;95.56
63493;BME280;49638;47.526;10.028;2022-12-04T11:05:34;90922.84;;;0.91;95.62
63493;BME280;49638;47.526;10.028;2022-12-04T11:08:48;90906.44;;;0.90;96.04
63493;BME280;49638;47.526;10.028;2022-12-04T11:11:50;90910.84;;;0.97;96.02
63493;BME280;49638;47.526;10.028;2022-12-04T11:15:20;90911.63;;;1.04;96.67
63493;BME280;49638;47.526;10.028;2022-12-04T11:18:26;90925.00;;;1.07;95.73
63493;BME280;49638;47.526;10.028;2022-12-04T11:21:29;90923.19;;;1.08;95.31
63493;BME280;49638;47.526;10.028;2022-12-04T11:24:35;90923.81;;;1.10;95.43
63493;BME280;49638;47.526;10.028;2022-12-04T11:27:36;90913.03;;;1.00;94.83
63493;BME280;49638;47.526;10.028;2022-12-04T11:30:37;90920.44;;;1.03;94.77
63493;BME280;49638;47.526;10.028;2022-12-04T11:33:42;90934.88;;;0.99;95.13
63493;BME280;49638;47.526;10.028;2022-12-04T11:36:49;90910.25;;;0.88;95.24
63493;BME280;49638;47.526;10.028;2022-12-04T11:39:51;90920.66;;;0.88;95.12
63493;BME280;49638;47.526;10.028;2022-12-04T11:43:16;90920.06;;;0.92;95.17
63493;BME280;49638;47.526;10.028;2022-12-04T11:46:22;90928.06;;;0.91;94.79
63493;BME280;49638;47.526;10.028;2022-12-04T11:49:24;90918.06;;;0.88;94.71
63493;BME280;49638;47.526;10.028;2022-12-04T11:52:40;90914.66;;;0.87;95.32
63493;BME280;49638;47.526;10.028;2022-12-04T11:55:51;90910.25;;;0.88;95.59
63493;BME280;49638;47.526;10.028;2022-12-04T12:05:29;90916.66;;;0.99;96.17
63493;BME280;49638;47.526;10.028;2022-12-04T12:08:42;90914.44;;;1.02;95.99
63493;BME280;49638;47.526;10.028;2022-12-04T12:18:31;90891.56;;;1.11;95.96
63493;BME280;49638;47.526;10.028;2022-12-04T12:34:42;90891.44;;;1.37;95.64
63493;BME280;49638;47.526;10.028;2022-12-04T12:37:46;90884.41;;;1.45;95.25
63493;BME280;49638;47.526;10.028;2022-12-04T12:41:01;90900.97;;;1.57;94.96
63493;BME280;49638;47.526;10.028;2022-12-04T12:44:32;90907.34;;;1.61;94.77
63493;BME280;49638;47.526;10.028;2022-12-04T12:47:39;90913.34;;;1.61;94.27
63493;BME280;49638;47.526;10.028;2022-12-04T12:50:45;90930.19;;;1.59;94.24
63493;BME280;49638;47.526;10.028;2022-12-04T12:53:48;90932.22;;;1.57;94.48
63493;BME280;49638;47.526;10.028;2022-12-04T12:56:54;90938.63;;;1.54;94.40
63493;BME280;49638;47.526;10.028;2022-12-04T13:00:03;90932.44;;;1.49;94.35
63493;BME280;49638;47.526;10.028;2022-12-04T13:03:16;90927.25;;;1.42;94.86
63493;BME280;49638;47.526;10.028;2022-12-04T13:06:25;90924.50;;;1.37;94.93
63493;BME280;49638;47.526;10.028;2022-12-04T13:09:30;90933.72;;;1.39;95.04
63493;BME280;49638;47.526;10.028;2022-12-04T13:12:41;90953.31;;;1.35;94.91
63493;BME280;49638;47.526;10.028;2022-12-04T13:15:46;90957.16;;;1.33;95.17
63493;BME280;49638;47.526;10.028;2022-12-04T13:19:35;90949.16;;;1.28;95.33
63493;BME280;49638;47.526;10.028;2022-12-04T13:22:30;90951.94;;;1.33;95.65
63493;BME280;49638;47.526;10.028;2022-12-04T13:29:27;90953.16;;;1.30;96.24
63493;BME280;49638;47.526;10.028;2022-12-04T13:42:30;90968.28;;;1.53;95.22
63493;BME280;49638;47.526;10.028;2022-12-04T13:45:32;90970.06;;;1.53;95.29
63493;BME280;49638;47.526;10.028;2022-12-04T13:48:41;90964.28;;;1.51;95.39
63493;BME280;49638;47.526;10.028;2022-12-04T13:51:46;90962.44;;;1.58;95.21
63493;BME280;49638;47.526;10.028;2022-12-04T13:54:58;90951.84;;;1.53;95.58
63493;BME280;49638;47.526;10.028;2022-12-04T14:01:24;90955.47;;;1.52;95.68
63493;BME280;49638;47.526;10.028;2022-12-04T14:04:39;90959.81;;;1.64;95.45
63493;BME280;49638;47.526;10.028;2022-12-04T14:07:57;90951.78;;;1.66;95.57
63493;BME280;49638;47.526;10.028;2022-12-04T14:11:01;90939.38;;;1.61;95.58
63493;BME280;49638;47.526;10.028;2022-12-04T14:14:02;90946.41;;;1.61;95.69
63493;BME280;49638;47.526;10.028;2022-12-04T14:17:03;90965.22;;;1.63;95.73
63493;BME280;49638;47.526;10.028;2022-12-04T14:20:07;90959.84;;;1.58;95.55
63493;BME280;49638;47.526;10.028;2022-12-04T14:23:24;90959.47;;;1.54;95.74
63493;BME280;49638;47.526;10.028;2022-12-04T14:26:27;90948.28;;;1.47;95.44
63493;BME280;49638;47.526;10.028;2022-12-04T14:30:10;90948.88;;;1.42;96.04
63493;BME280;49638;47.526;10.028;2022-12-04T14:33:08;90949.91;;;1.41;96.24
63493;BME280;49638;47.526;10.028;2022-12-04T14:36:16;90938.94;;;1.33;96.59
63493;BME280;49638;47.526;10.028;2022-12-04T14:39:27;90934.31;;;1.35;96.81
63493;BME280;49638;47.526;10.028;2022-12-04T14:42:35;90936.34;;;1.33;96.68
63493;BME280;49638;47.526;10.028;2022-12-04T14:45:53;90935.50;;;1.32;97.10
63493;BME280;49638;47.526;10.028;2022-12-04T14:49:16;90923.50;;;1.31;97.54
63493;BME280;49638;47.526;10.028;2022-12-04T14:52:33;90905.91;;;1.27;97.00
63493;BME280;49638;47.526;10.028;2022-12-04T14:56:05;90912.50;;;1.36;96.73
63493;BME280;49638;47.526;10.028;2022-12-04T14:59:19;90910.91;;;1.28;97.04
63493;BME280;49638;47.526;10.028;2022-12-04T15:02:32;90905.28;;;1.31;97.69
63493;BME280;49638;47.526;10.028;2022-12-04T15:05:33;90911.09;;;1.33;96.97
63493;BME280;49638;47.526;10.028;2022-12-04T15:08:34;90926.13;;;1.31;96.95
63493;BME280;49638;47.526;10.028;2022-12-04T15:15:21;90933.56;;;1.21;97.36
63493;BME280;49638;47.526;10.028;2022-12-04T15:18:23;90916.44;;;1.00;97.01
63493;BME280;49638;47.526;10.028;2022-12-04T15:21:33;90930.41;;;1.12;96.95
63493;BME280;49638;47.526;10.028;2022-12-04T15:24:35;90935.81;;;1.04;97.26
63493;BME280;49638;47.526;10.028;2022-12-04T15:27:36;90927.63;;;1.01;97.59
63493;BME280;49638;47.526;10.028;2022-12-04T15:30:38;90915.25;;;0.96;97.32
63493;BME280;49638;47.526;10.028;2022-12-04T15:33:40;90937.63;;;1.10;99.37
63493;BME280;49638;47.526;10.028;2022-12-04T15:36:50;90939.63;;;1.02;97.30
63493;BME280;49638;47.526;10.028;2022-12-04T15:39:55;90948.03;;;1.04;97.36
63493;BME280;49638;47.526;10.028;2022-12-04T15:43:12;90948.06;;;0.97;97.89
63493;BME280;49638;47.526;10.028;2022-12-04T15:46:21;90954.47;;;0.94;98.09
63493;BME280;49638;47.526;10.028;2022-12-04T15:49:29;90956.09;;;0.89;98.57
63493;BME280;49638;47.526;10.028;2022-12-04T15:52:30;90930.31;;;0.74;98.84
63493;BME280;49638;47.526;10.028;2022-12-04T15:55:47;90950.13;;;0.75;99.26
63493;BME280;49638;47.526;10.028;2022-12-04T15:58:55;90944.94;;;0.75;99.41
63493;BME280;49638;47.526;10.028;2022-12-04T16:02:03;90943.31;;;0.67;99.50
63493;BME280;49638;47.526;10.028;2022-12-04T16:08:28;90942.94;;;0.57;100.00
63493;BME280;49638;47.526;10.028;2022-12-04T16:11:32;90935.94;;;0.58;100.00
63493;BME280;49638;47.526;10.028;2022-12-04T16:14:33;90939.75;;;0.62;100.00
63493;BME280;49638;47.526;10.028;2022-12-04T16:17:33;90949.94;;;0.63;100.00
63493;BME280;49638;47.526;10.028;2022-12-04T16:20:36;90927.56;;;0.56;99.80
63493;BME280;49638;47.526;10.028;2022-12-04T16:23:37;90940.94;;;0.59;99.52
63493;BME280;49638;47.526;10.028;2022-12-04T16:26:37;90943.53;;;0.66;99.67
63493;BME280;49638;47.526;10.028;2022-12-04T16:29:38;90947.72;;;0.67;99.12
63493;BME280;49638;47.526;10.028;2022-12-04T16:32:38;90942.53;;;0.67;99.32
63493;BME280;49638;47.526;10.028;2022-12-04T16:35:38;90946.91;;;0.73;99.25
63493;BME280;49638;47.526;10.028;2022-12-04T16:38:39;90939.50;;;0.77;99.28
63493;BME280;49638;47.526;10.028;2022-12-04T16:41:39;90950.53;;;0.79;99.24
63493;BME280;49638;47.526;10.028;2022-12-04T16:44:40;90936.09;;;0.76;99.28
63493;BME280;49638;47.526;10.028;2022-12-04T16:47:40;90946.69;;;0.81;98.94
63493;BME280;49638;47.526;10.028;2022-12-04T16:50:42;90950.31;;;0.80;98.84
63493;BME280;49638;47.526;10.028;2022-12-04T16:53:43;90946.91;;;0.80;98.53
63493;BME280;49638;47.526;10.028;2022-12-04T16:56:43;90955.50;;;0.80;98.51
63493;BME280;49638;47.526;10.028;2022-12-04T16:59:43;90959.69;;;0.81;98.73
63493;BME280;49638;47.526;10.028;2022-12-04T17:02:44;90955.50;;;0.80;98.77
63493;BME280;49638;47.526;10.028;2022-12-04T17:05:45;90956.50;;;0.79;98.29
63493;BME280;49638;47.526;10.028;2022-12-04T17:08:46;90957.72;;;0.77;98.53
63493;BME280;49638;47.526;10.028;2022-12-04T17:11:46;90949.91;;;0.83;98.87
63493;BME280;49638;47.526;10.028;2022-12-04T17:14:47;90958.91;;;0.81;98.48
63493;BME280;49638;47.526;10.028;2022-12-04T17:17:47;90960.09;;;0.85;98.63
63493;BME280;49638;47.526;10.028;2022-12-04T17:20:48;90963.91;;;0.89;98.81
63493;BME280;49638;47.526;10.028;2022-12-04T17:23:48;90965.72;;;0.88;98.23
63493;BME280;49638;47.526;10.028;2022-12-04T17:26:48;90956.91;;;0.76;98.40
63493;BME280;49638;47.526;10.028;2022-12-04T17:29:49;90951.75;;;0.63;98.81
63493;BME280;49638;47.526;10.028;2022-12-04T17:32:49;90948.94;;;0.58;99.13
63493;BME280;49638;47.526;10.028;2022-12-04T17:35:50;90968.13;;;0.63;99.36
63493;BME280;49638;47.526;10.028;2022-12-04T17:38:56;90963.31;;;0.67;99.19
63493;BME280;49638;47.526;10.028;2022-12-04T17:41:57;90965.34;;;0.65;98.80